Time;durP1;ratioP1;P1;durP2;ratioP2;P2;SDS_P1;SDS_P2;PMS_P1;PMS_P2;Temp;Humidity;BMP_temperature;BMP_pressure;BME280_temperature;BME280_humidity;BME280_pressure;Samples;Min_cycle;Max_cycle;Signal;HPM_P1;HPM_P2
2021/07/22 00:03:41;;;;;;;;;4.75;4.75;;;;;;;;8869482;40;10520;-60
2021/07/22 00:10:04;;;;;;;;;3.75;3.75;;;;;;;;8869418;40;10721;-60
2021/07/22 00:16:07;;;;;;;;;5.50;5.50;;;;;;;;8870514;40;10587;-60
2021/07/22 00:22:09;;;;;;;;;5.50;5.50;;;;;;;;8870618;40;10554;-60
2021/07/22 00:28:11;;;;;;;;;4.00;4.00;;;;;;;;8869233;40;10529;-61
2021/07/22 00:34:15;;;;;;;;;6.00;4.25;;;;;;;;8870890;40;10527;-59
2021/07/22 00:40:17;;;;;;;;;8.33;5.67;;;;;;;;8872563;40;10145;-60
2021/07/22 00:46:21;;;;;;;;;5.00;5.00;;;;;;;;8862848;40;10607;-60
2021/07/22 00:52:23;;;;;;;;;5.00;5.00;;;;;;;;8872683;40;10579;-59
2021/07/22 00:58:26;;;;;;;;;5.50;5.50;;;;;;;;8863848;40;10605;-60
2021/07/22 01:04:28;;;;;;;;;4.75;4.75;;;;;;;;8864229;40;10732;-59
2021/07/22 01:10:30;;;;;;;;;4.33;4.33;;;;;;;;8863511;40;9866;-60
2021/07/22 01:16:38;;;;;;;;;6.00;4.33;;;;;;;;8873181;40;10281;-59
2021/07/22 01:22:43;;;;;;;;;7.00;7.00;;;;;;;;8863386;40;10658;-60
2021/07/22 01:28:47;;;;;;;;;4.75;4.75;;;;;;;;8863234;40;11181;-60
2021/07/22 01:34:49;;;;;;;;;6.67;6.33;;;;;;;;8862916;40;10383;-61
2021/07/22 01:40:55;;;;;;;;;9.67;9.00;;;;;;;;8872123;40;10258;-61
2021/07/22 01:47:03;;;;;;;;;9.00;8.00;;;;;;;;8862337;40;9805;-60
2021/07/22 01:53:07;;;;;;;;;11.67;10.33;;;;;;;;8871727;40;10595;-60
2021/07/22 01:59:09;;;;;;;;;13.00;11.00;;;;;;;;8861816;40;11869;-61
2021/07/22 02:05:13;;;;;;;;;8.00;8.00;;;;;;;;8854478;40;9985;-60
2021/07/22 02:11:18;;;;;;;;;9.67;8.67;;;;;;;;8864104;40;10498;-60
2021/07/22 02:17:21;;;;;;;;;10.33;8.33;;;;;;;;8862756;40;9909;-60
2021/07/22 02:23:23;;;;;;;;;11.00;9.00;;;;;;;;8870978;40;10299;-59
2021/07/22 02:29:48;;;;;;;;;8.67;7.67;;;;;;;;8870270;40;10045;-60
2021/07/22 02:35:52;;;;;;;;;9.67;9.67;;;;;;;;8871059;40;10173;-60
2021/07/22 02:42:12;;;;;;;;;10.67;10.67;;;;;;;;8863047;40;10481;-60
2021/07/22 02:48:15;;;;;;;;;13.00;12.00;;;;;;;;8861564;40;10373;-59
2021/07/22 02:54:18;;;;;;;;;11.33;9.00;;;;;;;;8869881;40;9727;-61
2021/07/22 03:00:21;;;;;;;;;11.67;7.67;;;;;;;;8861288;40;10374;-60
2021/07/22 03:06:24;;;;;;;;;11.33;10.33;;;;;;;;8861583;40;9871;-60
2021/07/22 03:12:32;;;;;;;;;9.33;9.33;;;;;;;;8860784;40;10027;-60
2021/07/22 03:18:35;;;;;;;;;11.00;9.00;;;;;;;;8860890;40;10105;-61
2021/07/22 03:24:41;;;;;;;;;12.67;9.00;;;;;;;;8860265;40;10050;-60
2021/07/22 03:31:00;;;;;;;;;9.00;9.00;;;;;;;;8860952;40;10081;-61
2021/07/22 03:37:08;;;;;;;;;10.00;9.00;;;;;;;;8870311;40;10209;-60
2021/07/22 03:43:10;;;;;;;;;10.67;10.33;;;;;;;;8869952;40;10360;-60
2021/07/22 03:49:15;;;;;;;;;16.67;12.00;;;;;;;;8860565;40;10054;-60
2021/07/22 03:55:17;;;;;;;;;11.00;9.33;;;;;;;;8860863;40;10043;-59
2021/07/22 04:01:49;;;;;;;;;8.33;8.33;;;;;;;;9934291;22;9765;-64
2021/07/22 04:07:59;;;;;;;;;8.67;7.67;;;;;;;;8893434;40;10380;-63
2021/07/22 04:14:18;;;;;;;;;11.00;9.33;;;;;;;;8897645;40;9846;-64
2021/07/22 04:20:43;;;;;;;;;8.00;8.00;;;;;;;;8886406;40;10212;-65
2021/07/22 04:26:54;;;;;;;;;9.67;8.00;;;;;;;;8897360;40;9672;-64
2021/07/22 04:33:17;;;;;;;;;5.00;5.00;;;;;;;;8888932;40;10221;-64
2021/07/22 04:39:48;;;;;;;;;8.75;7.50;;;;;;;;8887806;40;10501;-64
2021/07/22 04:46:11;;;;;;;;;11.50;10.00;;;;;;;;8897602;40;10609;-65
2021/07/22 04:52:31;;;;;;;;;9.00;7.75;;;;;;;;8896837;40;10536;-65
2021/07/22 04:58:41;;;;;;;;;7.25;7.25;;;;;;;;8888130;40;10805;-63
2021/07/22 05:04:56;;;;;;;;;7.25;7.25;;;;;;;;8897228;40;10690;-65
2021/07/22 05:11:00;;;;;;;;;10.00;8.67;;;;;;;;8881858;40;9919;-63
2021/07/22 05:17:13;;;;;;;;;12.25;8.00;;;;;;;;8887183;40;11194;-63
2021/07/22 05:23:33;;;;;;;;;10.50;10.50;;;;;;;;8888836;40;10689;-64
2021/07/22 05:30:03;;;;;;;;;11.00;9.75;;;;;;;;8402773;40;20002318;-63
2021/07/22 05:36:19;;;;;;;;;11.33;11.33;;;;;;;;8899437;40;10317;-64
2021/07/22 05:42:40;;;;;;;;;10.00;7.75;;;;;;;;8890280;40;10525;-63
2021/07/22 05:48:42;;;;;;;;;8.50;8.50;;;;;;;;8899226;40;10462;-63
2021/07/22 05:54:44;;;;;;;;;8.75;8.25;;;;;;;;8900485;40;10194;-64
2021/07/22 06:00:46;;;;;;;;;10.50;10.50;;;;;;;;8899431;40;10962;-63
2021/07/22 06:06:48;;;;;;;;;13.00;12.00;;;;;;;;8898088;40;10419;-64
2021/07/22 06:12:50;;;;;;;;;15.75;10.75;;;;;;;;8900920;40;10613;-65
2021/07/22 06:19:11;;;;;;;;;11.75;9.50;;;;;;;;8896504;40;10569;-63
2021/07/22 06:25:14;;;;;;;;;14.75;12.50;;;;;;;;8898098;40;10515;-63
2021/07/22 06:31:16;;;;;;;;;15.00;12.00;;;;;;;;8899599;39;10698;-63
2021/07/22 06:37:18;;;;;;;;;14.25;13.75;;;;;;;;8896673;40;10567;-62
2021/07/22 06:43:33;;;;;;;;;12.75;12.00;;;;;;;;8880900;40;10527;-63
2021/07/22 06:49:35;;;;;;;;;13.00;12.00;;;;;;;;8896787;40;10637;-63
2021/07/22 06:55:37;;;;;;;;;17.25;14.50;;;;;;;;8888528;40;10700;-64
2021/07/22 07:01:39;;;;;;;;;11.00;11.00;;;;;;;;8893080;40;10600;-64
2021/07/22 07:07:41;;;;;;;;;11.75;11.75;;;;;;;;8896052;40;10625;-63
2021/07/22 07:13:43;;;;;;;;;15.75;13.50;;;;;;;;8901667;40;10718;-63
2021/07/22 07:19:46;;;;;;;;;18.75;18.75;;;;;;;;8894595;40;11233;-63
2021/07/22 07:25:50;;;;;;;;;14.75;14.75;;;;;;;;8885516;40;10542;-64
2021/07/22 07:31:58;;;;;;;;;17.25;15.75;;;;;;;;8883232;40;10746;-62
2021/07/22 07:38:01;;;;;;;;;10.75;8.50;;;;;;;;8880238;40;10535;-63
2021/07/22 07:44:03;;;;;;;;;14.00;10.00;;;;;;;;8888611;40;10658;-63
2021/07/22 07:50:08;;;;;;;;;17.25;16.00;;;;;;;;8891879;40;10456;-63
2021/07/22 07:56:10;;;;;;;;;17.50;16.75;;;;;;;;8893793;40;10451;-64
2021/07/22 08:02:16;;;;;;;;;9.75;9.75;;;;;;;;8905498;40;10251;-62
2021/07/22 08:08:22;;;;;;;;;16.75;15.25;;;;;;;;8886653;40;10462;-64
2021/07/22 08:14:26;;;;;;;;;10.75;9.75;;;;;;;;8894266;40;10331;-65
2021/07/22 08:20:28;;;;;;;;;11.25;10.75;;;;;;;;8893067;40;10289;-62
2021/07/22 08:26:30;;;;;;;;;7.50;7.50;;;;;;;;8900494;40;11029;-62
2021/07/22 08:32:32;;;;;;;;;11.75;10.50;;;;;;;;8900737;40;10834;-62
2021/07/22 08:38:34;;;;;;;;;9.00;7.50;;;;;;;;8897705;40;10463;-63
2021/07/22 08:44:40;;;;;;;;;9.50;9.50;;;;;;;;8900953;40;10527;-62
2021/07/22 08:50:44;;;;;;;;;9.75;8.50;;;;;;;;8904230;40;10698;-64
2021/07/22 08:56:48;;;;;;;;;10.75;10.75;;;;;;;;8889185;40;10131;-64
2021/07/22 09:02:52;;;;;;;;;12.00;11.25;;;;;;;;8907626;40;10854;-64
2021/07/22 09:08:55;;;;;;;;;11.75;10.25;;;;;;;;8907006;40;10198;-64
2021/07/22 09:15:03;;;;;;;;;10.00;8.25;;;;;;;;8914802;40;10191;-63
2021/07/22 09:21:25;;;;;;;;;10.75;10.75;;;;;;;;8899577;40;10299;-64
2021/07/22 09:27:42;;;;;;;;;9.50;9.50;;;;;;;;8894504;40;10452;-63
2021/07/22 09:33:44;;;;;;;;;9.50;9.50;;;;;;;;8895675;40;10417;-64
2021/07/22 09:39:46;;;;;;;;;11.50;10.25;;;;;;;;8895757;40;10260;-64
2021/07/22 09:45:49;;;;;;;;;13.75;10.50;;;;;;;;8891760;40;10498;-65
2021/07/22 09:51:51;;;;;;;;;8.50;8.50;;;;;;;;8891074;40;10319;-63
2021/07/22 09:57:55;;;;;;;;;10.00;10.00;;;;;;;;8878298;39;10358;-64
2021/07/22 10:03:58;;;;;;;;;10.00;10.00;;;;;;;;8879880;40;10432;-63
2021/07/22 10:10:03;;;;;;;;;11.75;10.50;;;;;;;;8902458;40;10196;-65
2021/07/22 10:16:12;;;;;;;;;7.50;7.50;;;;;;;;8907925;40;10173;-65
2021/07/22 10:22:14;;;;;;;;;12.00;11.25;;;;;;;;8891132;40;10290;-63
2021/07/22 10:28:17;;;;;;;;;15.25;11.00;;;;;;;;8893697;40;10224;-63
2021/07/22 10:34:19;;;;;;;;;12.50;12.00;;;;;;;;8891661;40;10294;-64
2021/07/22 10:41:01;;;;;;;;;11.00;11.00;;;;;;;;8892619;40;10241;-63
2021/07/22 10:47:07;;;;;;;;;11.50;11.50;;;;;;;;8889197;40;11206;-63
2021/07/22 10:53:11;;;;;;;;;12.25;12.25;;;;;;;;8906046;40;10250;-63
2021/07/22 10:59:13;;;;;;;;;12.00;11.25;;;;;;;;8887330;40;10913;-64
2021/07/22 11:05:21;;;;;;;;;14.25;13.00;;;;;;;;8902919;40;10389;-64
2021/07/22 11:11:48;;;;;;;;;10.50;10.50;;;;;;;;8891410;40;10252;-63
2021/07/22 11:17:50;;;;;;;;;14.75;14.50;;;;;;;;8888943;40;10268;-64
2021/07/22 11:24:02;;;;;;;;;14.50;14.00;;;;;;;;8891127;40;10220;-64
2021/07/22 11:30:13;;;;;;;;;19.50;19.50;;;;;;;;8870284;40;10426;-63
2021/07/22 11:36:19;;;;;;;;;21.75;15.00;;;;;;;;8869455;40;11425;-63
2021/07/22 11:42:21;;;;;;;;;15.75;13.25;;;;;;;;8888818;40;10299;-65
2021/07/22 11:48:24;;;;;;;;;13.50;12.75;;;;;;;;8893788;40;11005;-63
2021/07/22 11:54:26;;;;;;;;;12.00;12.00;;;;;;;;8885928;40;10274;-64
2021/07/22 12:00:33;;;;;;;;;12.00;12.00;;;;;;;;8888201;40;10472;-64
2021/07/22 12:06:38;;;;;;;;;11.75;11.75;;;;;;;;8899099;40;10199;-63
2021/07/22 12:12:40;;;;;;;;;12.75;12.75;;;;;;;;8913132;40;10192;-63
2021/07/22 12:18:42;;;;;;;;;19.00;14.75;;;;;;;;8918894;40;10292;-63
2021/07/22 12:24:44;;;;;;;;;13.50;13.50;;;;;;;;8920238;40;10926;-64
2021/07/22 12:30:46;;;;;;;;;15.00;15.00;;;;;;;;8895632;40;10275;-64
2021/07/22 12:36:50;;;;;;;;;14.50;13.25;;;;;;;;8897924;40;10241;-64
2021/07/22 12:42:57;;;;;;;;;11.50;11.50;;;;;;;;8907071;40;10921;-65
2021/07/22 12:49:00;;;;;;;;;14.00;14.00;;;;;;;;8891115;40;10252;-64
2021/07/22 12:55:03;;;;;;;;;11.00;11.00;;;;;;;;8891498;40;10367;-63
2021/07/22 13:01:15;;;;;;;;;14.00;14.00;;;;;;;;8894635;40;10322;-64
2021/07/22 13:07:19;;;;;;;;;11.50;11.50;;;;;;;;8905159;40;10226;-63
2021/07/22 13:13:21;;;;;;;;;10.50;10.50;;;;;;;;8905018;40;10402;-65
2021/07/22 13:19:24;;;;;;;;;13.75;13.75;;;;;;;;8897933;40;10324;-64
2021/07/22 13:25:26;;;;;;;;;11.50;11.50;;;;;;;;8898548;40;10295;-64
2021/07/22 13:31:28;;;;;;;;;13.00;10.50;;;;;;;;8887388;40;10464;-64
2021/07/22 13:37:31;;;;;;;;;9.25;9.25;;;;;;;;8917657;40;10604;-64
2021/07/22 13:43:33;;;;;;;;;10.25;10.25;;;;;;;;8921263;39;10308;-63
2021/07/22 13:49:35;;;;;;;;;13.25;12.00;;;;;;;;8880313;40;10470;-62
2021/07/22 13:55:38;;;;;;;;;13.50;11.75;;;;;;;;8897566;40;10245;-65
2021/07/22 14:01:40;;;;;;;;;10.75;8.50;;;;;;;;8874002;40;10334;-64
2021/07/22 14:07:42;;;;;;;;;13.00;13.00;;;;;;;;8876513;40;10106;-63
2021/07/22 14:13:44;;;;;;;;;10.25;10.25;;;;;;;;8896882;40;10238;-63
2021/07/22 14:19:47;;;;;;;;;11.00;9.25;;;;;;;;8900016;40;10185;-65
2021/07/22 14:25:49;;;;;;;;;15.00;11.50;;;;;;;;8891060;40;10177;-63
2021/07/22 14:31:51;;;;;;;;;10.75;10.00;;;;;;;;8899244;40;10886;-65
2021/07/22 14:37:53;;;;;;;;;9.25;9.25;;;;;;;;8891981;40;10142;-63
2021/07/22 14:43:55;;;;;;;;;11.75;11.75;;;;;;;;8899595;40;10810;-64
2021/07/22 14:49:57;;;;;;;;;9.75;9.25;;;;;;;;8896124;40;10251;-65
2021/07/22 14:55:59;;;;;;;;;13.50;12.00;;;;;;;;8878214;40;10820;-65
2021/07/22 15:02:02;;;;;;;;;15.75;12.75;;;;;;;;8872231;40;10346;-66
2021/07/22 15:08:04;;;;;;;;;13.00;13.00;;;;;;;;8880292;40;10839;-66
2021/07/22 15:14:07;;;;;;;;;11.50;11.00;;;;;;;;8908745;40;10235;-65
2021/07/22 15:20:10;;;;;;;;;14.00;12.75;;;;;;;;8923689;40;10290;-65
2021/07/22 15:26:12;;;;;;;;;15.50;13.75;;;;;;;;8925380;40;10186;-63
2021/07/22 15:32:14;;;;;;;;;11.75;11.75;;;;;;;;8923197;40;11350;-64
2021/07/22 15:38:16;;;;;;;;;12.50;12.50;;;;;;;;8914181;40;10214;-64
2021/07/22 15:44:19;;;;;;;;;12.00;10.25;;;;;;;;8914533;40;10249;-64
2021/07/22 15:50:22;;;;;;;;;15.25;13.00;;;;;;;;8914869;40;10292;-65
2021/07/22 15:56:24;;;;;;;;;12.00;11.00;;;;;;;;8899723;40;10203;-64
2021/07/22 16:02:26;;;;;;;;;11.00;9.25;;;;;;;;8898598;40;10232;-64
2021/07/22 16:08:28;;;;;;;;;11.00;11.00;;;;;;;;8898553;40;10795;-65
2021/07/22 16:14:30;;;;;;;;;11.50;9.75;;;;;;;;8898949;40;10224;-64
2021/07/22 16:20:32;;;;;;;;;14.00;11.00;;;;;;;;8899139;40;10309;-64
2021/07/22 16:26:34;;;;;;;;;13.00;13.00;;;;;;;;8898633;40;10450;-64
2021/07/22 16:32:37;;;;;;;;;12.00;12.00;;;;;;;;8898292;40;10249;-65
2021/07/22 16:38:40;;;;;;;;;15.50;14.75;;;;;;;;8898102;40;10173;-63
2021/07/22 16:44:43;;;;;;;;;13.00;13.00;;;;;;;;8898145;40;10843;-64
2021/07/22 16:50:45;;;;;;;;;12.00;12.00;;;;;;;;8898302;40;10459;-63
2021/07/22 16:56:47;;;;;;;;;13.50;13.25;;;;;;;;8898554;40;10222;-65
2021/07/22 17:02:49;;;;;;;;;12.25;11.25;;;;;;;;8896542;40;10274;-64
2021/07/22 17:08:52;;;;;;;;;22.25;17.75;;;;;;;;8887591;40;10486;-64
2021/07/22 17:14:54;;;;;;;;;17.00;17.00;;;;;;;;8897368;40;10313;-64
2021/07/22 17:20:56;;;;;;;;;23.25;20.50;;;;;;;;8882779;40;10267;-65
2021/07/22 17:26:58;;;;;;;;;15.25;14.00;;;;;;;;8901335;40;10207;-64
2021/07/22 17:33:00;;;;;;;;;16.25;14.75;;;;;;;;8900243;40;10845;-64
2021/07/22 17:39:05;;;;;;;;;17.00;15.25;;;;;;;;8900130;40;10204;-64
2021/07/22 17:45:07;;;;;;;;;18.75;18.75;;;;;;;;8901629;40;10242;-65
2021/07/22 17:51:09;;;;;;;;;18.75;16.25;;;;;;;;8900746;40;10298;-65
2021/07/22 17:57:11;;;;;;;;;15.00;14.75;;;;;;;;8900730;40;10427;-63
2021/07/22 18:03:13;;;;;;;;;18.25;16.75;;;;;;;;8890318;40;10479;-63
2021/07/22 18:09:15;;;;;;;;;19.25;16.25;;;;;;;;8899550;40;10221;-64
2021/07/22 18:15:18;;;;;;;;;18.25;17.00;;;;;;;;8900271;40;11060;-64
2021/07/22 18:21:20;;;;;;;;;17.25;17.25;;;;;;;;8899456;40;10371;-64
2021/07/22 18:27:22;;;;;;;;;17.50;16.00;;;;;;;;8899908;40;10394;-64
2021/07/22 18:33:54;;;;;;;;;16.00;15.25;;;;;;;;8899623;40;10400;-64
2021/07/22 18:39:58;;;;;;;;;15.75;15.75;;;;;;;;8896332;40;10612;-64
2021/07/22 18:46:00;;;;;;;;;13.00;13.00;;;;;;;;8900623;40;10376;-64
2021/07/22 18:52:03;;;;;;;;;15.25;14.00;;;;;;;;8899908;40;10317;-64
2021/07/22 18:58:06;;;;;;;;;17.75;16.75;;;;;;;;8900562;40;10309;-64
2021/07/22 19:04:08;;;;;;;;;15.50;15.50;;;;;;;;8899584;40;10264;-65
2021/07/22 19:10:11;;;;;;;;;16.50;16.25;;;;;;;;8898972;40;10439;-64
2021/07/22 19:16:13;;;;;;;;;16.75;16.75;;;;;;;;8900140;40;10512;-64
2021/07/22 19:22:16;;;;;;;;;16.00;14.75;;;;;;;;8898687;40;10316;-64
2021/07/22 19:28:18;;;;;;;;;19.00;17.00;;;;;;;;8890427;40;10492;-64
2021/07/22 19:34:22;;;;;;;;;14.50;14.50;;;;;;;;8898561;40;10261;-65
2021/07/22 19:40:24;;;;;;;;;17.50;16.00;;;;;;;;8898912;40;10422;-64
2021/07/22 19:46:29;;;;;;;;;16.50;15.50;;;;;;;;8896895;40;10266;-64
2021/07/22 19:52:31;;;;;;;;;16.00;16.00;;;;;;;;8897294;40;10277;-63
2021/07/22 19:58:33;;;;;;;;;14.50;14.50;;;;;;;;8897147;40;10673;-65
2021/07/22 20:04:35;;;;;;;;;12.50;12.50;;;;;;;;8895998;40;10286;-65
2021/07/22 20:10:38;;;;;;;;;14.00;14.00;;;;;;;;8897031;40;10121;-64
2021/07/22 20:16:40;;;;;;;;;16.00;13.75;;;;;;;;8895564;40;10429;-64
2021/07/22 20:22:42;;;;;;;;;7.00;7.00;;;;;;;;8896233;40;10337;-64
2021/07/22 20:28:44;;;;;;;;;15.50;14.00;;;;;;;;8887938;40;10353;-64
2021/07/22 20:34:46;;;;;;;;;14.50;13.75;;;;;;;;8895671;40;10961;-64
2021/07/22 20:40:48;;;;;;;;;14.25;12.50;;;;;;;;8896150;40;10290;-64
2021/07/22 20:46:51;;;;;;;;;17.00;16.00;;;;;;;;8877880;40;10417;-63
2021/07/22 20:52:54;;;;;;;;;14.25;13.25;;;;;;;;8888272;40;10503;-64
2021/07/22 20:58:56;;;;;;;;;16.25;15.50;;;;;;;;8901330;40;10382;-63
2021/07/22 21:04:58;;;;;;;;;14.75;12.75;;;;;;;;8899784;40;10543;-63
2021/07/22 21:11:01;;;;;;;;;12.25;12.25;;;;;;;;8899311;40;11206;-64
2021/07/22 21:17:04;;;;;;;;;14.75;14.75;;;;;;;;8899802;40;10519;-64
2021/07/22 21:23:06;;;;;;;;;12.00;12.00;;;;;;;;8899530;40;10824;-65
2021/07/22 21:29:09;;;;;;;;;13.50;13.50;;;;;;;;8899640;40;10694;-65
2021/07/22 21:35:12;;;;;;;;;16.50;15.25;;;;;;;;8884012;40;10395;-64
2021/07/22 21:41:14;;;;;;;;;13.75;13.75;;;;;;;;8899875;40;10511;-63
2021/07/22 21:47:16;;;;;;;;;15.75;15.75;;;;;;;;8898719;40;10731;-64
2021/07/22 21:53:19;;;;;;;;;21.50;17.75;;;;;;;;8898359;40;10677;-64
2021/07/22 21:59:21;;;;;;;;;17.50;15.00;;;;;;;;8899688;40;10734;-64
2021/07/22 22:05:23;;;;;;;;;19.00;16.00;;;;;;;;8899188;40;10651;-64
2021/07/22 22:11:26;;;;;;;;;15.75;15.50;;;;;;;;8898872;40;10350;-63
2021/07/22 22:17:29;;;;;;;;;12.50;10.75;;;;;;;;8898362;40;10552;-64
2021/07/22 22:23:31;;;;;;;;;14.25;12.50;;;;;;;;8898610;40;10428;-64
2021/07/22 22:29:34;;;;;;;;;14.25;14.25;;;;;;;;8900217;40;11030;-64
2021/07/22 22:35:36;;;;;;;;;14.00;13.00;;;;;;;;8897698;40;10575;-63
2021/07/22 22:41:57;;;;;;;;;10.25;10.25;;;;;;;;8899650;40;10276;-64
2021/07/22 22:47:59;;;;;;;;;17.25;16.25;;;;;;;;8897456;40;10859;-64
2021/07/22 22:54:02;;;;;;;;;12.00;11.50;;;;;;;;8897358;40;10511;-63
2021/07/22 23:00:07;;;;;;;;;10.75;10.00;;;;;;;;8899787;40;10568;-64
2021/07/22 23:06:09;;;;;;;;;13.25;12.75;;;;;;;;8894835;40;10567;-65
2021/07/22 23:12:11;;;;;;;;;15.00;12.50;;;;;;;;8897534;40;10405;-64
2021/07/22 23:18:15;;;;;;;;;13.00;13.00;;;;;;;;8897026;40;10752;-65
2021/07/22 23:24:18;;;;;;;;;11.00;11.00;;;;;;;;8888513;40;10688;-64
2021/07/22 23:30:20;;;;;;;;;13.50;11.00;;;;;;;;8897823;40;10455;-63
2021/07/22 23:36:22;;;;;;;;;12.75;12.75;;;;;;;;8896541;40;10474;-65
2021/07/22 23:42:25;;;;;;;;;13.75;13.00;;;;;;;;8897570;40;10451;-63
2021/07/22 23:48:27;;;;;;;;;10.75;10.50;;;;;;;;8887882;40;10604;-63
2021/07/22 23:54:29;;;;;;;;;13.00;13.00;;;;;;;;8896743;40;10588;-64
